createdAt,value
2022-10-13T00:00:47.193Z,39.00
2022-10-13T00:03:10.667Z,50.42
2022-10-13T00:05:33.936Z,46.58
2022-10-13T00:07:57.246Z,43.78
2022-10-13T00:10:19.751Z,41.92
2022-10-13T00:12:42.328Z,44.47
2022-10-13T00:15:08.637Z,40.40
2022-10-13T00:17:31.144Z,42.72
2022-10-13T00:19:53.695Z,48.95
2022-10-13T00:22:16.502Z,42.13
2022-10-13T00:24:39.879Z,42.50
2022-10-13T00:27:02.471Z,45.92
2022-10-13T00:29:25.251Z,43.80
2022-10-13T00:31:47.775Z,41.67
2022-10-13T00:34:10.336Z,40.65
2022-10-13T00:36:33.134Z,42.53
2022-10-13T00:38:57.137Z,41.67
2022-10-13T00:41:20.862Z,37.35
2022-10-13T00:44:05.795Z,43.15
2022-10-13T00:46:31.484Z,43.33
2022-10-13T00:48:55.718Z,39.15
2022-10-13T00:51:23.165Z,47.83
2022-10-13T00:53:47.458Z,41.75
2022-10-13T00:56:13.137Z,41.17
2022-10-13T00:58:38.411Z,39.58
2022-10-13T01:01:01.141Z,39.33
2022-10-13T01:03:24.346Z,41.38
2022-10-13T01:05:50.122Z,42.33
2022-10-13T01:08:14.981Z,38.55
2022-10-13T01:11:04.575Z,42.35
2022-10-13T01:13:52.825Z,40.50
2022-10-13T01:16:33.645Z,41.10
2022-10-13T01:20:13.084Z,42.30
2022-10-13T01:23:06.351Z,40.60
2022-10-13T01:25:47.361Z,40.92
2022-10-13T01:28:39.356Z,38.75
2022-10-13T01:31:04.579Z,40.05
2022-10-13T01:33:42.241Z,39.13
2022-10-13T01:36:23.503Z,45.08
2022-10-13T01:39:03.129Z,41.30
2022-10-13T01:41:38.730Z,38.95
2022-10-13T01:44:16.156Z,39.72
2022-10-13T01:46:48.640Z,39.72
2022-10-13T01:49:14.410Z,37.55
2022-10-13T01:51:38.839Z,42.67
2022-10-13T01:54:01.482Z,40.30
2022-10-13T01:56:24.050Z,44.53
2022-10-13T01:58:49.900Z,42.55
2022-10-13T02:01:21.255Z,38.45
2022-10-13T02:04:06.454Z,41.70
2022-10-13T02:06:39.506Z,36.63
2022-10-13T02:09:12.533Z,37.35
2022-10-13T02:11:35.443Z,36.75
2022-10-13T02:13:57.963Z,35.50
2022-10-13T02:16:23.713Z,38.22
2022-10-13T02:18:46.658Z,38.42
2022-10-13T02:21:09.580Z,38.80
2022-10-13T02:23:32.352Z,41.45
2022-10-13T02:25:57.354Z,40.85
2022-10-13T02:28:20.374Z,44.60
2022-10-13T02:30:44.962Z,40.22
2022-10-13T02:33:08.543Z,40.40
2022-10-13T02:35:33.020Z,38.88
2022-10-13T02:37:56.432Z,41.35
2022-10-13T02:40:19.075Z,39.55
2022-10-13T02:42:41.583Z,38.15
2022-10-13T02:45:05.010Z,41.88
2022-10-13T02:47:27.607Z,39.95
2022-10-13T02:49:50.217Z,40.05
2022-10-13T02:52:12.763Z,40.03
2022-10-13T02:54:37.728Z,41.50
2022-10-13T02:57:00.224Z,43.53
2022-10-13T02:59:23.114Z,39.88
2022-10-13T03:01:45.813Z,42.63
2022-10-13T03:04:09.106Z,41.88
2022-10-13T03:06:31.640Z,40.47
2022-10-13T03:08:54.273Z,38.47
2022-10-13T03:11:16.896Z,39.47
2022-10-13T03:13:39.534Z,40.95
2022-10-13T03:16:02.124Z,41.00
2022-10-13T03:18:24.727Z,54.33
2022-10-13T03:21:02.514Z,76.88
2022-10-13T03:23:26.106Z,75.68
2022-10-13T03:25:48.595Z,90.28
2022-10-13T03:28:11.396Z,84.90
2022-10-13T03:30:34.492Z,65.80
2022-10-13T03:32:56.946Z,62.75
2022-10-13T03:35:19.504Z,70.93
2022-10-13T03:37:42.116Z,68.45
2022-10-13T03:40:06.146Z,83.55
2022-10-13T03:42:29.170Z,99.05
2022-10-13T03:44:56.148Z,102.03
2022-10-13T03:47:19.099Z,104.27
2022-10-13T03:49:41.916Z,104.32
2022-10-13T03:52:04.919Z,111.65
2022-10-13T03:54:27.628Z,97.53
2022-10-13T03:56:50.400Z,101.80
2022-10-13T03:59:13.624Z,91.75
2022-10-13T04:01:36.173Z,92.95
2022-10-13T04:04:02.178Z,93.78
2022-10-13T04:06:26.726Z,95.25
2022-10-13T04:08:49.636Z,104.05
2022-10-13T04:11:14.943Z,104.70
2022-10-13T04:13:38.422Z,100.07
2022-10-13T04:16:15.583Z,99.28
2022-10-13T04:18:42.399Z,99.25
2022-10-13T04:21:12.952Z,98.00
2022-10-13T04:23:36.234Z,91.00
2022-10-13T04:25:58.711Z,84.43
2022-10-13T04:28:21.877Z,84.15
2022-10-13T04:30:49.146Z,76.93
2022-10-13T04:33:12.116Z,75.60
2022-10-13T04:35:39.015Z,76.47
2022-10-13T04:38:01.766Z,78.93
2022-10-13T04:40:25.781Z,73.50
2022-10-13T04:42:48.284Z,65.97
2022-10-13T04:45:11.046Z,68.53
2022-10-13T04:47:37.180Z,64.13
2022-10-13T04:49:59.824Z,61.90
2022-10-13T04:52:22.723Z,61.10
2022-10-13T04:54:45.822Z,56.35
2022-10-13T04:57:08.486Z,55.72
2022-10-13T04:59:31.084Z,58.80
2022-10-13T05:01:53.697Z,55.65
2022-10-13T05:04:16.228Z,52.58
2022-10-13T05:07:05.190Z,50.00
2022-10-13T05:09:24.056Z,48.70
2022-10-13T05:11:46.754Z,46.97
2022-10-13T05:14:09.424Z,54.60
2022-10-13T05:16:32.259Z,56.90
2022-10-13T05:18:55.436Z,45.92
2022-10-13T05:21:23.465Z,49.67
2022-10-13T05:23:46.555Z,49.75
2022-10-13T05:26:12.480Z,45.95
2022-10-13T05:28:35.539Z,44.38
2022-10-13T05:30:58.380Z,44.08
2022-10-13T05:33:21.277Z,47.25
2022-10-13T05:35:43.948Z,52.28
2022-10-13T05:38:06.664Z,48.58
2022-10-13T05:40:29.381Z,48.75
2022-10-13T05:42:55.990Z,45.45
2022-10-13T05:45:21.687Z,46.38
2022-10-13T05:47:44.545Z,54.80
2022-10-13T05:50:08.395Z,50.90
2022-10-13T05:52:33.724Z,39.83
2022-10-13T05:55:00.054Z,43.67
2022-10-13T05:57:27.361Z,40.35
2022-10-13T05:59:58.563Z,39.50
2022-10-13T06:02:25.165Z,40.47
2022-10-13T06:04:51.160Z,44.80
2022-10-13T06:07:14.452Z,45.10
2022-10-13T06:09:38.767Z,46.50
2022-10-13T06:12:01.584Z,44.25
2022-10-13T06:14:24.093Z,42.60
2022-10-13T06:16:46.763Z,45.08
2022-10-13T06:19:09.336Z,45.75
2022-10-13T06:21:33.938Z,41.53
2022-10-13T06:23:56.852Z,44.05
2022-10-13T06:26:19.479Z,45.42
2022-10-13T06:28:46.250Z,42.47
2022-10-13T06:31:12.274Z,45.47
2022-10-13T06:33:34.995Z,41.00
2022-10-13T06:36:02.003Z,41.45
2022-10-13T06:38:25.280Z,41.25
2022-10-13T06:40:48.343Z,45.50
2022-10-13T06:43:11.333Z,40.53
2022-10-13T06:45:37.167Z,42.15
2022-10-13T06:48:00.178Z,40.53
2022-10-13T06:50:23.547Z,42.80
2022-10-13T06:53:07.632Z,42.80
2022-10-13T06:55:30.260Z,45.70
2022-10-13T07:00:32.650Z,30.73
2022-10-13T07:02:55.307Z,26.17
2022-10-13T07:05:18.679Z,28.70
2022-10-13T07:07:41.581Z,30.23
2022-10-13T07:10:05.024Z,29.00
2022-10-13T07:12:28.546Z,26.60
2022-10-13T07:14:51.208Z,28.90
2022-10-13T07:17:13.816Z,29.52
2022-10-13T07:19:36.665Z,27.08
2022-10-13T07:21:59.414Z,28.00
2022-10-13T07:24:23.548Z,27.17
2022-10-13T07:26:46.276Z,26.90
2022-10-13T07:29:09.323Z,25.17
2022-10-13T07:31:31.926Z,26.63
2022-10-13T07:33:54.897Z,29.02
2022-10-13T07:36:22.409Z,27.05
2022-10-13T07:38:47.123Z,25.55
2022-10-13T07:41:11.638Z,22.13
2022-10-13T07:43:34.417Z,27.90
2022-10-13T07:46:04.593Z,22.55
2022-10-13T07:48:28.475Z,22.23
2022-10-13T07:50:55.204Z,27.75
2022-10-13T07:53:18.309Z,28.00
2022-10-13T07:55:40.989Z,26.35
2022-10-13T07:58:03.974Z,24.65
2022-10-13T08:00:29.877Z,32.50
2022-10-13T08:02:53.038Z,26.30
2022-10-13T08:05:16.068Z,28.00
2022-10-13T08:07:39.346Z,28.95
2022-10-13T08:10:02.356Z,29.35
2022-10-13T08:12:25.101Z,28.40
2022-10-13T08:14:51.078Z,27.63
2022-10-13T08:17:13.718Z,24.75
2022-10-13T08:19:37.319Z,26.17
2022-10-13T08:22:00.510Z,24.83
2022-10-13T08:24:24.349Z,28.35
2022-10-13T08:26:47.256Z,30.63
2022-10-13T08:29:21.425Z,26.10
2022-10-13T08:31:45.827Z,28.15
2022-10-13T08:34:09.688Z,25.73
2022-10-13T08:36:32.312Z,22.95
2022-10-13T08:38:55.009Z,25.00
2022-10-13T08:41:28.309Z,21.40
2022-10-13T08:44:47.617Z,23.20
2022-10-13T08:46:56.061Z,26.30
2022-10-13T08:49:18.908Z,22.02
2022-10-13T08:51:42.540Z,19.48
2022-10-13T08:54:06.123Z,17.83
2022-10-13T08:56:32.297Z,24.00
2022-10-13T08:58:56.637Z,18.67
2022-10-13T09:01:31.408Z,19.33
2022-10-13T09:04:20.959Z,17.85
2022-10-13T09:06:49.771Z,18.23
2022-10-13T09:09:15.582Z,16.38
2022-10-13T09:11:44.058Z,15.40
2022-10-13T09:14:13.053Z,15.85
2022-10-13T09:16:37.621Z,17.15
2022-10-13T09:19:20.273Z,16.02
2022-10-13T09:21:43.171Z,17.48
2022-10-13T09:24:08.346Z,19.30
2022-10-13T09:26:31.536Z,18.55
2022-10-13T09:28:56.509Z,19.08
2022-10-13T09:31:24.991Z,17.50
2022-10-13T09:33:56.942Z,22.40
2022-10-13T09:36:19.627Z,16.70
2022-10-13T09:39:06.501Z,17.52
2022-10-13T09:41:30.294Z,15.93
2022-10-13T09:43:52.815Z,19.45
2022-10-13T09:46:24.407Z,18.42
2022-10-13T09:48:51.854Z,13.65
2022-10-13T09:51:31.940Z,14.80
2022-10-13T09:53:57.698Z,14.30
2022-10-13T09:56:30.821Z,15.02
2022-10-13T09:59:35.390Z,19.95
2022-10-13T10:02:01.156Z,16.48
2022-10-13T10:04:35.810Z,16.15
2022-10-13T10:06:58.502Z,17.83
2022-10-13T10:09:33.239Z,17.58
2022-10-13T10:11:59.000Z,14.20
2022-10-13T10:14:28.960Z,16.45
2022-10-13T10:17:04.951Z,16.33
2022-10-13T10:20:04.987Z,19.83
2022-10-13T10:23:01.346Z,18.33
2022-10-13T10:25:39.375Z,17.48
2022-10-13T10:28:01.851Z,19.05
2022-10-13T10:30:24.393Z,18.83
2022-10-13T10:32:49.825Z,17.05
2022-10-13T10:35:44.288Z,19.45
2022-10-13T10:38:16.271Z,14.85
2022-10-13T10:41:09.945Z,17.73
2022-10-13T10:43:55.459Z,17.08
2022-10-13T10:46:22.986Z,17.27
2022-10-13T10:48:47.413Z,17.00
2022-10-13T10:51:15.455Z,21.80
2022-10-13T10:54:15.776Z,19.13
2022-10-13T10:56:42.738Z,18.85
2022-10-13T10:59:05.319Z,17.17
2022-10-13T11:02:16.365Z,19.17
2022-10-13T11:04:50.090Z,18.65
2022-10-13T11:07:24.375Z,19.33
2022-10-13T11:09:52.977Z,17.13
2022-10-13T11:12:22.203Z,16.92
2022-10-13T11:14:53.930Z,20.15
2022-10-13T11:17:19.780Z,20.15
2022-10-13T11:19:45.277Z,19.48
2022-10-13T11:22:07.771Z,20.55
2022-10-13T11:24:42.171Z,21.23
2022-10-13T11:27:12.494Z,23.42
2022-10-13T11:29:59.664Z,19.30
2022-10-13T11:32:30.599Z,18.13
2022-10-13T11:35:05.562Z,19.88
2022-10-13T11:38:05.868Z,22.33
2022-10-13T11:41:11.741Z,23.05
2022-10-13T11:43:59.424Z,21.48
2022-10-13T11:46:39.670Z,20.70
2022-10-13T11:49:12.153Z,18.48
2022-10-13T11:51:46.703Z,21.13
2022-10-13T11:54:13.554Z,16.90
2022-10-13T11:56:49.039Z,22.70
2022-10-13T11:59:31.902Z,16.95
2022-10-13T12:02:06.580Z,18.65
2022-10-13T12:04:29.380Z,16.30
2022-10-13T12:07:08.047Z,15.57
2022-10-13T12:09:31.771Z,15.80
2022-10-13T12:12:07.517Z,18.02
2022-10-13T12:17:02.510Z,17.95
2022-10-13T12:19:28.358Z,15.93
2022-10-13T12:21:53.127Z,17.00
2022-10-13T12:24:15.797Z,16.75
2022-10-13T12:26:39.152Z,16.63
2022-10-13T12:29:05.226Z,14.57
2022-10-13T12:31:31.211Z,16.27
2022-10-13T12:33:56.909Z,15.02
2022-10-13T12:36:31.297Z,17.38
2022-10-13T12:38:59.751Z,13.75
2022-10-13T12:41:29.180Z,18.35
2022-10-13T12:43:53.326Z,14.05
2022-10-13T12:46:39.705Z,17.35
2022-10-13T12:49:17.605Z,17.63
2022-10-13T12:51:41.093Z,15.15
2022-10-13T12:54:08.951Z,18.63
2022-10-13T12:56:33.383Z,17.73
2022-10-13T12:58:57.346Z,20.33
2022-10-13T13:01:35.626Z,15.95
2022-10-13T13:04:21.531Z,18.85
2022-10-13T13:07:01.684Z,15.40
2022-10-13T13:09:29.522Z,16.63
2022-10-13T13:12:10.898Z,17.27
2022-10-13T13:14:40.501Z,15.65
2022-10-13T13:17:12.806Z,16.42
2022-10-13T13:19:37.877Z,17.42
2022-10-13T13:22:00.573Z,17.60
2022-10-13T13:24:36.037Z,15.80
2022-10-13T13:27:21.180Z,16.90
2022-10-13T13:29:45.736Z,21.20
2022-10-13T13:32:19.863Z,17.85
2022-10-13T13:34:43.183Z,16.63
2022-10-13T13:37:05.752Z,19.10
2022-10-13T13:39:28.472Z,16.15
2022-10-13T13:41:51.124Z,15.85
2022-10-13T13:44:13.922Z,18.63
2022-10-13T13:46:38.327Z,22.60
2022-10-13T13:49:02.746Z,17.30
2022-10-13T13:51:25.407Z,17.98
2022-10-13T13:53:48.027Z,17.77
2022-10-13T13:56:17.083Z,21.52
2022-10-13T13:58:39.768Z,18.13
2022-10-13T14:01:02.461Z,17.30
2022-10-13T14:03:25.235Z,18.60
2022-10-13T14:05:47.809Z,17.48
2022-10-13T14:08:10.556Z,22.35
2022-10-13T14:10:33.839Z,17.38
2022-10-13T14:12:56.515Z,18.05
2022-10-13T14:15:19.357Z,20.90
2022-10-13T14:17:42.095Z,18.60
2022-10-13T14:20:05.420Z,21.90
2022-10-13T14:22:32.751Z,18.33
2022-10-13T14:24:55.308Z,18.98
2022-10-13T14:27:17.824Z,19.70
2022-10-13T14:29:40.481Z,18.85
2022-10-13T14:32:03.547Z,17.40
2022-10-13T14:34:26.216Z,19.42
2022-10-13T14:36:48.898Z,18.83
2022-10-13T14:39:11.508Z,20.77
2022-10-13T14:41:34.179Z,21.67
2022-10-13T14:43:57.336Z,18.10
2022-10-13T14:46:21.225Z,16.40
2022-10-13T14:48:43.828Z,18.58
2022-10-13T14:51:07.790Z,18.58
2022-10-13T14:53:32.951Z,18.35
2022-10-13T14:55:55.669Z,19.05
2022-10-13T14:58:18.433Z,20.52
2022-10-13T15:00:42.846Z,19.10
2022-10-13T15:03:05.736Z,18.15
2022-10-13T15:05:28.468Z,20.13
2022-10-13T15:07:51.166Z,20.98
2022-10-13T15:10:13.920Z,22.48
2022-10-13T15:12:36.525Z,19.15
2022-10-13T15:14:59.268Z,19.15
2022-10-13T15:17:22.130Z,21.60
2022-10-13T15:19:44.908Z,19.48
2022-10-13T15:22:07.352Z,19.52
2022-10-13T15:24:29.878Z,20.02
2022-10-13T15:26:57.487Z,19.80
2022-10-13T15:29:25.056Z,20.75
2022-10-13T15:31:47.665Z,22.08
2022-10-13T15:34:10.319Z,24.17
2022-10-13T15:36:32.824Z,23.38
2022-10-13T15:38:55.412Z,21.75
2022-10-13T15:41:18.615Z,24.13
2022-10-13T15:43:41.320Z,20.95
2022-10-13T15:46:07.162Z,22.65
2022-10-13T15:48:30.716Z,21.45
2022-10-13T15:50:53.263Z,22.80
2022-10-13T15:53:15.938Z,26.25
2022-10-13T15:55:38.976Z,27.15
2022-10-13T15:58:02.091Z,26.27
2022-10-13T16:00:24.818Z,28.95
2022-10-13T16:02:51.057Z,32.80
2022-10-13T16:05:13.776Z,26.27
2022-10-13T16:07:36.677Z,27.00
2022-10-13T16:09:59.615Z,23.65
2022-10-13T16:12:24.376Z,24.73
2022-10-13T16:14:47.170Z,26.55
2022-10-13T16:17:09.962Z,22.60
2022-10-13T16:19:32.801Z,27.90
2022-10-13T16:21:55.395Z,26.60
2022-10-13T16:24:17.986Z,25.65
2022-10-13T16:26:40.675Z,25.00
2022-10-13T16:29:03.503Z,26.85
2022-10-13T16:31:26.155Z,25.02
2022-10-13T16:33:48.703Z,24.73
2022-10-13T16:36:14.690Z,27.90
2022-10-13T16:38:37.636Z,28.73
2022-10-13T16:41:04.499Z,23.83
2022-10-13T16:43:27.053Z,24.80
2022-10-13T16:46:01.382Z,24.65
2022-10-13T16:48:26.493Z,23.08
2022-10-13T16:50:49.027Z,23.13
2022-10-13T16:53:15.012Z,27.50
2022-10-13T16:55:39.883Z,30.02
2022-10-13T16:58:02.406Z,29.85
2022-10-13T17:00:24.995Z,27.83
2022-10-13T17:02:47.615Z,28.95
2022-10-13T17:05:10.109Z,28.58
2022-10-13T17:07:32.840Z,25.95
2022-10-13T17:09:55.925Z,27.98
2022-10-13T17:12:18.721Z,29.13
2022-10-13T17:14:41.394Z,23.42
2022-10-13T17:17:04.284Z,26.63
2022-10-13T17:19:26.830Z,25.10
2022-10-13T17:21:49.782Z,25.10
2022-10-13T17:24:12.545Z,27.88
2022-10-13T17:26:35.226Z,25.65
2022-10-13T17:28:57.886Z,28.48
2022-10-13T17:31:24.232Z,28.75
2022-10-13T17:33:50.040Z,30.23
2022-10-13T17:36:34.468Z,29.67
2022-10-13T17:39:07.426Z,32.72
2022-10-13T17:41:32.770Z,30.90
2022-10-13T17:43:55.354Z,33.22
2022-10-13T17:46:37.880Z,31.20
2022-10-13T17:49:01.696Z,32.58
2022-10-13T17:51:24.606Z,31.48
2022-10-13T17:53:48.590Z,33.08
2022-10-13T17:56:14.145Z,32.30
2022-10-13T17:58:37.903Z,33.10
2022-10-13T18:01:12.930Z,31.65
2022-10-13T18:03:38.986Z,32.80
2022-10-13T18:06:01.472Z,30.00
2022-10-13T18:08:24.003Z,33.25
2022-10-13T18:11:07.030Z,30.95
2022-10-13T18:13:29.153Z,30.58
2022-10-13T18:15:51.811Z,32.47
2022-10-13T18:18:15.451Z,38.63
2022-10-13T18:20:39.086Z,40.42
2022-10-13T18:23:02.124Z,39.83
2022-10-13T18:25:24.805Z,38.67
2022-10-13T18:27:51.459Z,38.80
2022-10-13T18:30:16.574Z,41.50
2022-10-13T18:32:43.508Z,39.60
2022-10-13T18:35:08.105Z,42.33
2022-10-13T18:37:31.088Z,40.15
2022-10-13T18:39:53.601Z,39.90
2022-10-13T18:42:16.137Z,42.35
2022-10-13T18:44:38.828Z,43.88
2022-10-13T18:47:01.610Z,44.33
2022-10-13T18:49:33.384Z,44.67
2022-10-13T18:51:58.567Z,46.67
2022-10-13T18:54:21.280Z,49.72
2022-10-13T18:56:45.163Z,41.80
2022-10-13T18:59:10.630Z,41.45
2022-10-13T19:01:37.000Z,46.17
2022-10-13T19:03:59.472Z,42.72
2022-10-13T19:06:27.320Z,43.35
2022-10-13T19:08:50.853Z,42.92
2022-10-13T19:11:15.177Z,43.25
2022-10-13T19:13:38.090Z,45.00
2022-10-13T19:16:01.176Z,44.28
2022-10-13T19:18:23.660Z,44.90
2022-10-13T19:20:46.792Z,42.95
2022-10-13T19:23:15.646Z,46.03
2022-10-13T19:25:42.147Z,45.47
2022-10-13T19:28:04.949Z,50.05
2022-10-13T19:30:28.226Z,45.75
2022-10-13T19:32:50.965Z,48.53
2022-10-13T19:35:13.834Z,46.90
2022-10-13T19:37:37.389Z,47.85
2022-10-13T19:40:00.188Z,48.10
2022-10-13T19:42:24.743Z,49.05
2022-10-13T19:44:47.347Z,49.30
2022-10-13T19:47:09.910Z,49.22
2022-10-13T19:49:33.035Z,51.55
2022-10-13T19:51:56.062Z,50.67
2022-10-13T19:54:19.987Z,49.08
2022-10-13T19:56:42.561Z,50.17
2022-10-13T19:59:05.144Z,56.53
2022-10-13T20:01:28.229Z,51.03
2022-10-13T20:03:51.475Z,50.90
2022-10-13T20:06:14.105Z,56.42
2022-10-13T20:08:37.109Z,54.72
2022-10-13T20:11:04.991Z,50.28
2022-10-13T20:13:27.582Z,54.78
2022-10-13T20:15:56.046Z,52.80
2022-10-13T20:18:19.139Z,57.40
2022-10-13T20:20:41.760Z,56.38
2022-10-13T20:23:04.527Z,56.85
2022-10-13T20:25:28.895Z,53.72
2022-10-13T20:27:51.561Z,50.13
2022-10-13T20:30:14.400Z,50.80
2022-10-13T20:32:37.294Z,51.30
2022-10-13T20:34:59.830Z,52.28
2022-10-13T20:37:22.878Z,50.20
2022-10-13T20:39:47.106Z,52.10
2022-10-13T20:42:09.852Z,47.83
2022-10-13T20:44:32.451Z,48.78
2022-10-13T20:46:55.478Z,45.70
2022-10-13T20:49:18.416Z,52.75
2022-10-13T20:51:42.583Z,48.78
2022-10-13T20:54:05.349Z,49.00
2022-10-13T20:56:28.297Z,48.60
2022-10-13T20:58:51.779Z,49.05
2022-10-13T21:01:15.009Z,49.08
2022-10-13T21:03:38.736Z,49.47
2022-10-13T21:06:04.348Z,48.85
2022-10-13T21:08:26.954Z,49.10
2022-10-13T21:10:50.431Z,48.50
2022-10-13T21:13:16.139Z,47.13
2022-10-13T21:15:40.842Z,47.33
2022-10-13T21:18:04.179Z,48.05
2022-10-13T21:20:26.632Z,50.05
2022-10-13T21:22:49.119Z,50.40
2022-10-13T21:25:11.645Z,50.20
2022-10-13T21:27:34.252Z,45.65
2022-10-13T21:29:57.072Z,49.35
2022-10-13T21:32:19.980Z,48.97
2022-10-13T21:34:42.949Z,52.30
2022-10-13T21:37:05.700Z,52.25
2022-10-13T21:39:28.281Z,47.42
2022-10-13T21:41:50.763Z,49.05
2022-10-13T21:44:14.850Z,48.40
2022-10-13T21:46:37.307Z,52.47
2022-10-13T21:49:02.288Z,49.75
2022-10-13T21:51:29.537Z,47.25
2022-10-13T21:53:54.848Z,46.47
2022-10-13T21:56:18.473Z,46.85
2022-10-13T21:58:41.229Z,49.22
2022-10-13T22:01:05.744Z,49.28
2022-10-13T22:03:28.440Z,46.63
2022-10-13T22:05:51.045Z,46.72
2022-10-13T22:08:13.665Z,46.72
2022-10-13T22:10:36.232Z,51.10
2022-10-13T22:12:59.112Z,47.20
2022-10-13T22:15:21.635Z,48.65
2022-10-13T22:17:44.422Z,49.78
2022-10-13T22:20:07.548Z,48.90
2022-10-13T22:22:31.101Z,47.30
2022-10-13T22:24:53.826Z,48.85
2022-10-13T22:27:16.421Z,49.13
2022-10-13T22:29:39.206Z,47.30
2022-10-13T22:32:01.757Z,46.05
2022-10-13T22:34:24.886Z,48.55
2022-10-13T22:36:47.474Z,47.50
2022-10-13T22:39:10.787Z,47.25
2022-10-13T22:41:34.558Z,46.92
2022-10-13T22:43:58.429Z,47.03
2022-10-13T22:46:24.097Z,48.72
2022-10-13T22:48:46.842Z,47.15
2022-10-13T22:51:11.427Z,48.65
2022-10-13T22:53:34.419Z,45.33
2022-10-13T22:55:57.001Z,45.55
2022-10-13T22:58:19.449Z,47.58
2022-10-13T23:00:43.569Z,50.10
2022-10-13T23:03:06.405Z,50.28
2022-10-13T23:05:29.036Z,43.83
2022-10-13T23:07:51.595Z,48.70
2022-10-13T23:10:14.252Z,45.38
2022-10-13T23:12:37.981Z,46.88
2022-10-13T23:15:00.600Z,48.17
2022-10-13T23:17:23.610Z,48.88
2022-10-13T23:19:46.977Z,44.63
2022-10-13T23:22:09.521Z,48.88
2022-10-13T23:24:32.056Z,47.25
2022-10-13T23:27:00.269Z,44.60
2022-10-13T23:29:22.933Z,42.83
2022-10-13T23:31:45.765Z,49.92
2022-10-13T23:34:08.338Z,46.65
2022-10-13T23:36:32.324Z,50.13
2022-10-13T23:38:59.719Z,44.92
2022-10-13T23:41:22.426Z,44.75
2022-10-13T23:43:45.039Z,46.20
2022-10-13T23:46:08.472Z,44.80
2022-10-13T23:48:31.301Z,45.72
2022-10-13T23:50:53.812Z,45.72
2022-10-13T23:53:16.754Z,47.13
2022-10-13T23:55:39.991Z,48.08
2022-10-13T23:58:02.614Z,44.75
